Time;durP1;ratioP1;P1;durP2;ratioP2;P2;SDS_P1;SDS_P2;PMS_P1;PMS_P2;Temp;Humidity;BMP_temperature;BMP_pressure;BME280_temperature;BME280_humidity;BME280_pressure;Samples;Min_cycle;Max_cycle;Signal;HPM_P1;HPM_P2
2022/05/08 00:02:09;;;;;;;;;;;14.80;99.90;;;;;;8407464;28;20030;-74
2022/05/08 00:06:11;;;;;;;;;;;14.80;99.90;;;;;;8406875;28;19927;-74
2022/05/08 00:10:13;;;;;;;;;;;14.70;99.90;;;;;;8407851;28;19924;-73
2022/05/08 00:14:14;;;;;;;;;;;14.70;99.90;;;;;;8413216;28;19924;-74
2022/05/08 00:18:16;;;;;;;;;;;14.60;99.90;;;;;;8412890;28;19921;-73
2022/05/08 00:22:18;;;;;;;;;;;14.50;99.90;;;;;;8420398;28;20333;-74
2022/05/08 00:26:34;;;;;;;;;;;14.50;99.90;;;;;;8418644;28;19924;-73
2022/05/08 00:30:36;;;;;;;;;;;14.40;99.90;;;;;;8425574;28;19920;-74
2022/05/08 00:34:37;;;;;;;;;;;14.40;99.90;;;;;;8419695;28;19951;-73
2022/05/08 00:38:39;;;;;;;;;;;14.30;99.90;;;;;;8414400;28;19920;-73
2022/05/08 00:42:42;;;;;;;;;;;14.30;99.90;;;;;;8409389;28;19924;-73
2022/05/08 00:46:44;;;;;;;;;;;14.30;99.90;;;;;;8422403;28;19931;-73
2022/05/08 00:50:46;;;;;;;;;;;14.30;99.90;;;;;;8420734;28;19926;-74
2022/05/08 00:54:47;;;;;;;;;;;14.20;99.90;;;;;;8418448;28;20280;-74
2022/05/08 00:58:50;;;;;;;;;;;14.20;99.90;;;;;;8421378;28;19931;-73
2022/05/08 01:02:52;;;;;;;;;;;14.20;99.90;;;;;;8407831;28;19966;-74
2022/05/08 01:06:54;;;;;;;;;;;14.10;99.90;;;;;;8449764;27;20272;-73
2022/05/08 01:10:55;;;;;;;;;;;14.10;99.90;;;;;;8409535;28;20314;-74
2022/05/08 01:15:09;;;;;;;;;;;14.00;99.90;;;;;;8402159;28;19920;-74
2022/05/08 01:19:11;;;;;;;;;;;13.90;99.90;;;;;;8418916;28;20390;-73
2022/05/08 01:23:15;;;;;;;;;;;13.90;99.90;;;;;;8455507;27;19975;-73
2022/05/08 01:27:16;;;;;;;;;;;13.90;99.90;;;;;;8416258;28;19927;-73
2022/05/08 01:31:18;;;;;;;;;;;13.90;99.90;;;;;;8405196;28;19920;-74
2022/05/08 01:35:19;;;;;;;;;;;13.80;99.90;;;;;;8412001;28;19954;-74
2022/05/08 01:39:21;;;;;;;;;;;13.80;99.90;;;;;;8411132;28;19924;-72
2022/05/08 01:43:23;;;;;;;;;;;13.70;99.90;;;;;;8410172;28;19927;-74
2022/05/08 01:51:45;;;;;;;;;;;13.60;99.90;;;;;;8424223;28;19924;-73
2022/05/08 01:55:49;;;;;;;;;;;13.60;99.90;;;;;;8420279;28;20367;-73
2022/05/08 01:59:51;;;;;;;;;;;13.50;99.90;;;;;;8421481;28;19931;-73
2022/05/08 02:03:53;;;;;;;;;;;13.50;99.90;;;;;;8415104;28;19920;-74
2022/05/08 02:07:54;;;;;;;;;;;13.40;99.90;;;;;;8410487;28;20295;-73
2022/05/08 02:11:56;;;;;;;;;;;13.40;99.90;;;;;;8414859;28;19927;-73
2022/05/08 02:15:58;;;;;;;;;;;13.30;99.90;;;;;;8415528;28;19924;-74
2022/05/08 02:20:00;;;;;;;;;;;13.30;99.90;;;;;;8416399;28;20009;-74
2022/05/08 02:24:03;;;;;;;;;;;13.20;99.90;;;;;;8416830;28;20383;-73
2022/05/08 02:28:04;;;;;;;;;;;13.20;99.90;;;;;;8422356;28;19927;-74
2022/05/08 02:32:06;;;;;;;;;;;13.20;99.90;;;;;;8424167;28;20378;-74
2022/05/08 02:36:08;;;;;;;;;;;13.10;99.90;;;;;;8412254;28;19921;-73
2022/05/08 02:40:10;;;;;;;;;;;13.10;99.90;;;;;;8417858;28;20750;-73
2022/05/08 02:44:12;;;;;;;;;;;13.00;99.90;;;;;;8427321;28;19927;-73
2022/05/08 02:48:14;;;;;;;;;;;13.00;99.90;;;;;;8421554;28;20256;-74
2022/05/08 02:52:15;;;;;;;;;;;12.90;99.90;;;;;;8476103;27;19927;-73
2022/05/08 03:00:37;;;;;;;;;;;12.80;99.90;;;;;;8423004;28;19943;-73
2022/05/08 03:04:39;;;;;;;;;;;12.70;99.90;;;;;;8419254;28;19921;-74
2022/05/08 03:08:41;;;;;;;;;;;12.70;99.90;;;;;;8413147;28;20143;-73
2022/05/08 03:12:42;;;;;;;;;;;12.60;99.90;;;;;;8424862;28;19927;-73
2022/05/08 03:16:44;;;;;;;;;;;12.60;99.90;;;;;;8427023;28;19928;-74
2022/05/08 03:20:46;;;;;;;;;;;12.50;99.90;;;;;;8424405;28;20337;-74
2022/05/08 03:24:47;;;;;;;;;;;12.50;99.90;;;;;;8424898;28;19920;-73
2022/05/08 03:28:49;;;;;;;;;;;12.50;99.90;;;;;;8420995;28;19927;-73
2022/05/08 03:32:51;;;;;;;;;;;12.50;99.90;;;;;;8410358;28;19947;-73
2022/05/08 03:36:52;;;;;;;;;;;12.40;99.90;;;;;;8434468;28;19920;-73
2022/05/08 03:40:54;;;;;;;;;;;12.40;99.90;;;;;;8428082;28;19928;-73
2022/05/08 03:44:56;;;;;;;;;;;12.40;99.90;;;;;;8425065;28;19920;-74
2022/05/08 03:48:58;;;;;;;;;;;12.30;99.90;;;;;;8433882;28;20335;-74
2022/05/08 03:53:02;;;;;;;;;;;12.30;99.90;;;;;;8427406;28;20265;-74
2022/05/08 03:57:04;;;;;;;;;;;12.20;99.90;;;;;;8422630;28;19928;-74
2022/05/08 04:01:05;;;;;;;;;;;12.20;99.90;;;;;;8416610;28;19927;-75
2022/05/08 04:05:08;;;;;;;;;;;12.10;99.90;;;;;;8430846;28;19927;-74
2022/05/08 04:09:09;;;;;;;;;;;12.10;99.90;;;;;;8420222;28;19928;-73
2022/05/08 04:13:11;;;;;;;;;;;12.00;99.90;;;;;;8422844;28;20313;-74
2022/05/08 04:17:13;;;;;;;;;;;12.00;99.90;;;;;;8418314;28;20391;-74
2022/05/08 04:21:14;;;;;;;;;;;11.90;99.90;;;;;;8420775;28;21474;-74
2022/05/08 04:25:16;;;;;;;;;;;11.90;99.90;;;;;;8418318;28;19931;-74
2022/05/08 04:29:18;;;;;;;;;;;11.90;99.90;;;;;;8429758;28;19920;-73
2022/05/08 04:33:19;;;;;;;;;;;11.80;99.90;;;;;;8416702;28;19927;-74
2022/05/08 04:37:21;;;;;;;;;;;11.80;99.90;;;;;;8416588;28;19934;-74
2022/05/08 04:41:23;;;;;;;;;;;11.80;99.90;;;;;;8421102;28;20406;-74
2022/05/08 04:45:24;;;;;;;;;;;11.70;99.90;;;;;;8420679;28;20386;-74
2022/05/08 04:49:29;;;;;;;;;;;11.70;99.90;;;;;;8420101;28;19924;-74
2022/05/08 04:53:31;;;;;;;;;;;11.70;99.90;;;;;;8414900;28;19931;-74
2022/05/08 04:57:32;;;;;;;;;;;11.70;99.90;;;;;;8423229;28;20519;-74
2022/05/08 05:01:35;;;;;;;;;;;11.80;99.90;;;;;;8420005;28;20570;-74
2022/05/08 05:05:36;;;;;;;;;;;11.80;99.90;;;;;;8429385;28;20314;-74
2022/05/08 05:09:38;;;;;;;;;;;11.80;99.90;;;;;;8417271;28;20344;-74
2022/05/08 05:13:40;;;;;;;;;;;11.90;99.90;;;;;;8421151;28;20429;-74
2022/05/08 05:17:41;;;;;;;;;;;11.90;99.90;;;;;;8422832;28;19924;-74
2022/05/08 05:21:43;;;;;;;;;;;12.00;99.90;;;;;;8413727;28;19972;-74
2022/05/08 05:25:44;;;;;;;;;;;12.00;99.90;;;;;;8425837;28;19924;-74
2022/05/08 05:29:47;;;;;;;;;;;12.10;99.90;;;;;;8429950;28;19919;-74
2022/05/08 05:33:49;;;;;;;;;;;12.10;99.90;;;;;;8419823;28;19928;-74
2022/05/08 05:37:51;;;;;;;;;;;12.20;99.90;;;;;;8422643;28;20136;-74
2022/05/08 05:41:52;;;;;;;;;;;12.30;99.90;;;;;;8419198;28;19931;-74
2022/05/08 05:50:14;;;;;;;;;;;12.40;99.90;;;;;;8415815;28;19930;-74
2022/05/08 05:54:21;;;;;;;;;;;12.50;99.90;;;;;;8414403;28;20432;-74
2022/05/08 05:58:22;;;;;;;;;;;12.50;99.90;;;;;;8422530;28;19927;-74
2022/05/08 06:02:24;;;;;;;;;;;12.60;99.90;;;;;;8440861;27;19924;-74
2022/05/08 06:06:26;;;;;;;;;;;12.70;99.90;;;;;;8409621;28;19924;-74
2022/05/08 06:10:28;;;;;;;;;;;12.70;99.90;;;;;;8401207;28;19964;-74
2022/05/08 06:14:29;;;;;;;;;;;12.80;99.90;;;;;;8406258;28;19932;-74
2022/05/08 06:18:31;;;;;;;;;;;12.80;99.90;;;;;;8402648;28;19962;-74
2022/05/08 06:22:33;;;;;;;;;;;12.90;99.90;;;;;;8409760;28;20409;-74
2022/05/08 06:26:34;;;;;;;;;;;13.00;99.90;;;;;;8403842;28;19928;-74
2022/05/08 06:30:36;;;;;;;;;;;13.10;99.90;;;;;;8391870;28;20376;-74
2022/05/08 06:34:38;;;;;;;;;;;13.20;99.90;;;;;;8391611;28;19997;-73
2022/05/08 06:38:39;;;;;;;;;;;13.30;99.90;;;;;;8390302;28;19955;-74
2022/05/08 06:42:41;;;;;;;;;;;13.30;99.90;;;;;;8381283;28;19971;-74
2022/05/08 06:46:43;;;;;;;;;;;13.40;99.90;;;;;;8390254;28;19932;-74
2022/05/08 06:50:44;;;;;;;;;;;13.50;99.90;;;;;;8390471;28;19935;-74
2022/05/08 06:54:47;;;;;;;;;;;13.60;99.90;;;;;;8419211;27;20524;-74
2022/05/08 07:03:08;;;;;;;;;;;13.70;99.90;;;;;;8395259;28;19931;-74
2022/05/08 07:07:10;;;;;;;;;;;13.80;99.90;;;;;;8396679;28;19932;-74
2022/05/08 07:11:12;;;;;;;;;;;13.90;99.90;;;;;;8393641;28;19940;-73
2022/05/08 07:15:13;;;;;;;;;;;14.00;99.90;;;;;;8392932;28;19955;-74
2022/05/08 07:19:15;;;;;;;;;;;14.00;99.90;;;;;;8393174;28;19943;-74
2022/05/08 07:23:17;;;;;;;;;;;14.10;99.90;;;;;;8394742;28;19925;-73
2022/05/08 07:27:18;;;;;;;;;;;14.20;99.90;;;;;;8398649;28;20441;-74
2022/05/08 07:31:20;;;;;;;;;;;14.30;99.90;;;;;;8395932;28;19924;-74
2022/05/08 07:39:42;;;;;;;;;;;14.50;99.90;;;;;;8397647;28;19939;-73
2022/05/08 07:43:47;;;;;;;;;;;14.60;99.90;;;;;;8398742;28;20303;-74
2022/05/08 07:47:49;;;;;;;;;;;14.70;99.90;;;;;;8397384;28;20372;-74
2022/05/08 07:51:50;;;;;;;;;;;14.80;99.90;;;;;;8395268;28;19923;-74
2022/05/08 07:55:52;;;;;;;;;;;14.90;99.90;;;;;;8408335;28;20945;-74
2022/05/08 07:59:54;;;;;;;;;;;15.00;99.90;;;;;;8433722;27;20633;-73
2022/05/08 08:03:56;;;;;;;;;;;15.00;99.90;;;;;;8425418;27;19924;-74
2022/05/08 08:07:57;;;;;;;;;;;15.10;99.90;;;;;;8395356;28;19982;-74
2022/05/08 08:11:59;;;;;;;;;;;15.20;99.90;;;;;;8426570;27;19920;-74
2022/05/08 08:16:01;;;;;;;;;;;15.30;99.90;;;;;;8397661;28;20368;-74
2022/05/08 08:20:03;;;;;;;;;;;15.40;99.90;;;;;;8393097;28;19920;-74
2022/05/08 08:24:05;;;;;;;;;;;15.50;99.90;;;;;;8395459;28;19926;-74
2022/05/08 08:28:07;;;;;;;;;;;15.60;99.90;;;;;;8398552;28;20379;-74
2022/05/08 08:32:08;;;;;;;;;;;15.60;99.90;;;;;;8394352;28;19971;-74
2022/05/08 08:36:11;;;;;;;;;;;15.70;99.90;;;;;;8406918;28;19926;-74
2022/05/08 08:40:13;;;;;;;;;;;15.80;99.90;;;;;;8408288;28;22965;-72
2022/05/08 08:48:35;;;;;;;;;;;15.90;99.90;;;;;;8406498;28;19967;-74
2022/05/08 08:52:37;;;;;;;;;;;15.90;99.90;;;;;;8410141;28;19976;-74
2022/05/08 08:56:38;;;;;;;;;;;15.90;99.90;;;;;;8409114;28;19920;-73
2022/05/08 09:00:40;;;;;;;;;;;15.90;99.90;;;;;;8403425;28;19920;-74
2022/05/08 09:04:42;;;;;;;;;;;15.90;99.90;;;;;;8406306;28;20299;-75
2022/05/08 09:08:44;;;;;;;;;;;16.00;99.90;;;;;;8408756;28;19923;-74
2022/05/08 09:12:51;;;;;;;;;;;16.10;99.90;;;;;;8407067;28;19935;-74
2022/05/08 09:16:53;;;;;;;;;;;16.20;99.90;;;;;;8395334;28;19936;-74
2022/05/08 09:21:02;;;;;;;;;;;16.30;99.90;;;;;;8393452;28;19935;-74
2022/05/08 09:25:04;;;;;;;;;;;16.40;99.90;;;;;;8391183;28;20011;-74
2022/05/08 09:29:07;;;;;;;;;;;16.50;99.90;;;;;;8401043;28;20279;-74
2022/05/08 09:33:20;;;;;;;;;;;16.50;99.90;;;;;;8401620;28;19920;-74
2022/05/08 09:37:22;;;;;;;;;;;16.60;99.90;;;;;;8394634;28;19924;-74
2022/05/08 09:41:26;;;;;;;;;;;16.70;99.90;;;;;;8392070;28;19963;-75
2022/05/08 09:45:28;;;;;;;;;;;16.80;99.90;;;;;;8403995;28;20336;-74
2022/05/08 09:49:31;;;;;;;;;;;16.90;99.90;;;;;;8404213;28;19928;-75
2022/05/08 09:53:33;;;;;;;;;;;16.90;99.90;;;;;;8388098;28;19928;-74
2022/05/08 09:57:35;;;;;;;;;;;17.00;99.90;;;;;;8392668;28;19966;-74
2022/05/08 10:01:38;;;;;;;;;;;17.10;99.90;;;;;;8386168;28;19920;-74
2022/05/08 10:05:41;;;;;;;;;;;17.10;99.90;;;;;;8420436;27;19928;-72
2022/05/08 10:14:07;;;;;;;;;;;17.30;99.90;;;;;;8390097;28;19928;-74
2022/05/08 10:18:25;;;;;;;;;;;17.40;99.90;;;;;;8388724;28;21190;-75
2022/05/08 10:22:45;;;;;;;;;;;17.50;99.90;;;;;;8396602;28;20007;-74
2022/05/08 10:27:06;;;;;;;;;;;17.60;99.90;;;;;;8390308;28;20291;-75
2022/05/08 10:31:27;;;;;;;;;;;17.60;99.90;;;;;;8394013;28;19946;-74
2022/05/08 10:35:29;;;;;;;;;;;17.80;99.90;;;;;;8391750;28;19964;-74
2022/05/08 10:39:45;;;;;;;;;;;17.90;99.90;;;;;;8392647;28;19928;-74
2022/05/08 10:43:46;;;;;;;;;;;18.00;99.90;;;;;;8391832;28;19932;-74
2022/05/08 10:47:48;;;;;;;;;;;18.10;99.90;;;;;;8391218;28;19947;-74
2022/05/08 10:51:51;;;;;;;;;;;18.10;99.90;;;;;;8392352;28;19983;-75
2022/05/08 10:55:58;;;;;;;;;;;18.20;99.90;;;;;;8388684;28;20292;-74
2022/05/08 11:00:01;;;;;;;;;;;18.10;99.90;;;;;;8390815;28;19967;-75
2022/05/08 11:04:09;;;;;;;;;;;18.10;99.90;;;;;;8388713;28;20248;-74
2022/05/08 11:08:12;;;;;;;;;;;18.20;99.90;;;;;;8430678;27;19935;-75
2022/05/08 11:12:13;;;;;;;;;;;18.30;99.90;;;;;;8402042;28;19970;-75
2022/05/08 11:16:33;;;;;;;;;;;18.40;99.90;;;;;;8400912;28;19978;-75
2022/05/08 11:20:39;;;;;;;;;;;18.50;99.90;;;;;;8410824;28;20452;-75
2022/05/08 11:24:42;;;;;;;2.85;1.00;;;18.60;99.90;;;;;;8396842;28;20299;-74
2022/05/08 11:28:49;;;;;;;2.92;0.95;;;18.70;99.90;;;;;;8395587;28;19928;-74
2022/05/08 11:37:18;;;;;;;;;;;19.40;99.90;;;;;;8391855;28;20057;-75
2022/05/08 11:41:20;;;;;;;;;;;19.80;99.90;;;;;;8395046;28;19924;-74
2022/05/08 11:45:22;;;;;;;;;;;19.90;99.90;;;;;;8426395;27;20368;-75
2022/05/08 11:49:27;;;;;;;;;;;19.80;99.90;;;;;;8397056;28;19935;-74
2022/05/08 11:53:37;;;;;;;;;;;19.50;99.90;;;;;;8403301;28;19920;-75
2022/05/08 11:57:43;;;;;;;;;;;19.30;99.90;;;;;;8400815;28;19936;-75
2022/05/08 12:01:52;;;;;;;;;;;19.20;99.90;;;;;;8395725;28;19935;-74
2022/05/08 12:06:12;;;;;;;;;;;19.20;99.90;;;;;;8395255;28;19982;-74
2022/05/08 12:10:15;;;;;;;;;;;19.20;99.90;;;;;;8393471;28;20356;-74
2022/05/08 12:14:28;;;;;;;;;;;19.20;99.90;;;;;;8394535;28;20224;-74
2022/05/08 12:18:29;;;;;;;;;;;19.20;99.90;;;;;;8394122;28;19939;-74
2022/05/08 12:22:31;;;;;;;;;;;19.10;99.90;;;;;;8400284;28;19920;-74
2022/05/08 12:26:33;;;;;;;;;;;19.10;99.90;;;;;;8397415;28;19958;-74
2022/05/08 12:30:34;;;;;;;;;;;19.10;99.90;;;;;;8423348;27;20310;-74
2022/05/08 12:34:37;;;;;;;;;;;19.20;99.70;;;;;;8392368;28;19928;-74
2022/05/08 12:38:39;;;;;;;;;;;19.30;99.50;;;;;;8394788;28;19938;-74
2022/05/08 12:42:41;;;;;;;;;;;19.30;98.70;;;;;;8391430;28;19932;-74
2022/05/08 12:46:42;;;;;;;;;;;19.20;98.70;;;;;;8393711;28;19967;-74
2022/05/08 12:50:45;;;;;;;;;;;19.20;98.50;;;;;;8395565;28;20276;-75
2022/05/08 12:54:47;;;;;;;;;;;19.20;98.50;;;;;;8393740;28;19968;-75
2022/05/08 13:03:11;;;;;;;;;;;19.40;98.40;;;;;;8397883;28;19920;-75
2022/05/08 13:07:12;;;;;;;;;;;19.40;98.20;;;;;;8407096;28;19923;-75
2022/05/08 13:11:14;;;;;;;;;;;19.40;98.10;;;;;;8407597;28;19931;-74
2022/05/08 13:15:18;;;;;;;;;;;19.40;98.00;;;;;;8407780;28;19924;-74
2022/05/08 13:19:20;;;;;;;;;;;19.50;98.00;;;;;;8404447;28;20012;-74
2022/05/08 13:23:21;;;;;;;;;;;19.50;97.70;;;;;;8401085;28;20263;-74
2022/05/08 13:27:23;;;;;;;;;;;19.60;97.60;;;;;;8397192;28;19932;-75
2022/05/08 13:31:25;;;;;;;;;;;19.60;97.40;;;;;;8404043;28;19925;-74
2022/05/08 13:35:27;;;;;;;;;;;19.70;97.30;;;;;;8409444;28;19924;-75
2022/05/08 13:39:28;;;;;;;;;;;19.90;97.20;;;;;;8403531;28;19920;-74
2022/05/08 13:43:30;;;;;;;;;;;20.00;96.80;;;;;;8404256;28;19920;-74
2022/05/08 13:47:32;;;;;;;;;;;20.10;96.90;;;;;;8397937;28;19967;-72
2022/05/08 13:51:33;;;;;;;;;;;20.30;97.70;;;;;;8391536;28;20030;-72
2022/05/08 13:55:37;;;;;;;;;;;20.40;98.30;;;;;;8392891;28;20152;-73
2022/05/08 13:59:40;;;;;;;;;;;20.50;98.40;;;;;;8393109;28;20454;-72
2022/05/08 14:03:42;;;;;;;;;;;20.50;98.20;;;;;;8387836;28;19978;-72
2022/05/08 14:07:44;;;;;;;;;;;20.50;97.90;;;;;;8388299;28;19938;-72
2022/05/08 14:11:45;;;;;;;;;;;20.40;97.30;;;;;;8388896;28;19982;-73
2022/05/08 14:15:47;;;;;;;;;;;20.40;96.90;;;;;;8393900;28;19928;-72
2022/05/08 14:19:49;;;;;;;;;;;20.40;96.70;;;;;;8391847;28;19920;-72
2022/05/08 14:23:50;;;;;;;;;;;20.40;96.50;;;;;;8398048;28;19924;-72
2022/05/08 14:27:52;;;;;;;;;;;20.50;96.20;;;;;;8396332;28;19927;-72
2022/05/08 14:36:15;;;;;;;;;;;20.50;95.80;;;;;;8390554;28;20273;-72
2022/05/08 14:40:17;;;;;;;;;;;20.60;96.10;;;;;;8380674;28;19968;-72
2022/05/08 14:44:18;;;;;;;;;;;20.70;96.30;;;;;;8389130;28;20659;-72
2022/05/08 14:48:21;;;;;;;;;;;20.90;96.30;;;;;;8403498;27;20298;-72
2022/05/08 14:52:23;;;;;;;;;;;21.20;96.50;;;;;;8394203;28;19925;-72
2022/05/08 14:56:24;;;;;;;;;;;21.50;96.80;;;;;;8391869;28;20423;-72
2022/05/08 15:00:29;;;;;;;;;;;21.60;96.70;;;;;;8390136;28;19920;-72
2022/05/08 15:04:31;;;;;;;;;;;21.60;96.40;;;;;;8391343;28;19990;-74
2022/05/08 15:08:33;;;;;;;;;;;21.50;96.00;;;;;;8387385;28;19928;-74
2022/05/08 15:12:35;;;;;;;;;;;21.50;95.50;;;;;;8391548;28;19924;-74
2022/05/08 15:16:39;;;;;;;;;;;21.40;98.20;;;;;;8391289;28;19924;-74
2022/05/08 15:20:41;;;;;;;;;;;21.40;99.10;;;;;;8393153;28;20015;-75
2022/05/08 15:24:43;;;;;;;;;;;21.50;99.70;;;;;;8396188;28;20139;-75
2022/05/08 15:28:45;;;;;;;;;;;21.70;99.70;;;;;;8420506;27;19947;-74
2022/05/08 15:32:46;;;;;;;;;;;21.80;99.80;;;;;;8392432;28;25068;-74
2022/05/08 15:36:51;;;;;;;;;;;22.00;99.30;;;;;;8388736;28;19920;-74
2022/05/08 15:40:55;;;;;;;;;;;22.20;98.70;;;;;;8386926;28;19924;-74
2022/05/08 15:44:58;;;;;;;;;;;22.30;99.00;;;;;;8392633;28;19920;-74
2022/05/08 15:49:01;;;;;;;;;;;22.50;99.30;;;;;;8395023;28;19928;-75
2022/05/08 15:53:03;;;;;;;;;;;22.90;99.60;;;;;;8398487;28;20633;-74
2022/05/08 15:57:04;;;;;;;;;;;23.50;98.00;;;;;;8396815;28;20296;-75
2022/05/08 16:01:07;;;;;;;;;;;24.10;98.10;;;;;;8394506;28;20406;-74
2022/05/08 16:05:09;;;;;;;;;;;24.60;98.10;;;;;;8394520;28;19932;-75
2022/05/08 16:09:11;;;;;;;;;;;24.90;98.70;;;;;;8394119;28;20256;-75
2022/05/08 16:26:14;;;;;;;;;;;25.70;99.50;;;;;;8385472;28;19921;-73
2022/05/08 16:30:16;;;;;;;;;;;25.80;99.50;;;;;;8396362;28;19924;-73
2022/05/08 16:34:18;;;;;;;;;;;25.90;99.60;;;;;;8396602;28;19925;-73
2022/05/08 16:38:21;;;;;;;;;;;26.00;99.50;;;;;;8391894;28;19963;-73
2022/05/08 16:42:24;;;;;;;;;;;25.90;99.10;;;;;;8401788;28;20347;-73
2022/05/08 16:46:26;;;;;;;;;;;25.90;98.80;;;;;;8392944;28;20446;-73
2022/05/08 16:50:27;;;;;;;;;;;25.90;98.70;;;;;;8388858;28;19943;-73
2022/05/08 16:54:31;;;;;;;;;;;25.90;98.50;;;;;;8388409;28;19931;-74
2022/05/08 16:58:33;;;;;;;;;;;26.10;98.50;;;;;;8390310;28;19938;-75
2022/05/08 17:02:36;;;;;;;;;;;26.10;98.20;;;;;;8396787;28;21795;-75
2022/05/08 17:06:38;;;;;;;;;;;26.10;98.00;;;;;;8392808;28;19966;-75
2022/05/08 17:10:42;;;;;;;;;;;26.00;97.60;;;;;;8395719;28;19971;-75
2022/05/08 17:14:43;;;;;;;;;;;25.70;97.30;;;;;;8394974;28;20387;-75
2022/05/08 17:18:45;;;;;;;;;;;25.60;97.20;;;;;;8388205;28;19931;-75
2022/05/08 17:22:48;;;;;;;;;;;25.50;97.20;;;;;;8392112;28;19928;-75
2022/05/08 17:31:11;;;;;;;;;;;25.30;96.60;;;;;;8401396;28;19970;-74
2022/05/08 17:35:12;;;;;;;;;;;25.10;96.20;;;;;;8402576;28;20481;-74
2022/05/08 17:39:15;;;;;;;;;;;24.80;95.50;;;;;;8390297;28;20030;-75
2022/05/08 17:43:16;;;;;;;;;;;24.50;94.80;;;;;;8396053;28;19920;-72
2022/05/08 17:47:18;;;;;;;;;;;24.20;94.10;;;;;;8395934;28;19924;-72
2022/05/08 17:51:21;;;;;;;;;;;23.90;93.50;;;;;;8401436;28;19920;-78
2022/05/08 17:55:23;;;;;;;;;;;23.60;92.90;;;;;;8407799;28;19925;-75
2022/05/08 17:59:24;;;;;;;;;;;23.10;92.40;;;;;;8391836;28;19978;-74
2022/05/08 18:08:06;;;;;;;;;;;22.20;91.50;;;;;;8374654;28;19925;-74
2022/05/08 18:12:08;;;;;;;;;;;21.70;91.00;;;;;;8388469;28;19924;-74
2022/05/08 18:16:10;;;;;;;;;;;21.30;90.80;;;;;;8391403;28;19919;-74
2022/05/08 18:20:12;;;;;;;;;;;21.20;90.90;;;;;;8391432;28;19924;-74
2022/05/08 18:24:14;;;;;;;;;;;21.20;90.90;;;;;;8404433;28;19924;-74
2022/05/08 18:28:16;;;;;;;;;;;21.20;90.80;;;;;;8388729;28;19939;-74
2022/05/08 18:32:17;;;;;;;;;;;21.00;90.50;;;;;;8421328;27;19920;-74
2022/05/08 18:36:19;;;;;;;;;;;20.70;90.20;;;;;;8389875;28;19924;-74
2022/05/08 18:40:20;;;;;;;;;;;20.40;90.00;;;;;;8392362;28;19927;-74
2022/05/08 18:44:23;;;;;;;;;;;20.20;89.50;;;;;;8384234;28;19929;-74
2022/05/08 18:48:24;;;;;;;;;;;20.00;89.10;;;;;;8418973;27;19927;-74
2022/05/08 18:52:29;;;;;;;;;;;19.80;88.80;;;;;;8390705;28;20287;-74
2022/05/08 18:56:34;;;;;;;;;;;19.60;88.40;;;;;;8399248;28;19928;-74
2022/05/08 19:00:36;;;;;;;;;;;19.40;88.10;;;;;;8391379;28;20016;-74
2022/05/08 19:04:38;;;;;;;;;;;19.20;87.70;;;;;;8387153;28;20372;-74
2022/05/08 19:08:40;;;;;;;;;;;19.10;87.60;;;;;;8388373;28;20480;-74
2022/05/08 19:12:41;;;;;;;;;;;19.00;87.30;;;;;;8390627;28;19921;-74
2022/05/08 19:16:43;;;;;;;;;;;18.90;87.00;;;;;;8396520;28;20353;-75
2022/05/08 19:20:45;;;;;;;;;;;18.80;86.80;;;;;;8396113;28;19936;-74
2022/05/08 19:24:48;;;;;;;;;;;18.70;86.60;;;;;;8400402;28;19935;-74
2022/05/08 19:28:50;;;;;;;;;;;18.60;87.50;;;;;;8389704;28;19920;-74
2022/05/08 19:41:33;;;;;;;;;;;18.30;87.10;;;;;;8397129;28;19928;-74
2022/05/08 19:45:35;;;;;;;;;;;18.10;86.20;;;;;;8394126;28;19932;-75
2022/05/08 19:49:37;;;;;;;;;;;18.00;85.80;;;;;;8396648;28;19924;-74
2022/05/08 19:53:39;;;;;;;;;;;17.90;85.60;;;;;;8393834;28;19959;-75
2022/05/08 19:57:40;;;;;;;;;;;17.80;85.40;;;;;;8397104;28;20000;-74
2022/05/08 20:01:42;;;;;;;;;;;17.70;85.30;;;;;;8398352;28;19924;-74
2022/05/08 20:05:44;;;;;;;;;;;17.60;85.10;;;;;;8391167;28;20112;-74
2022/05/08 20:09:46;;;;;;;;;;;17.40;85.00;;;;;;8397384;28;20390;-74
2022/05/08 20:13:49;;;;;;;;;;;17.30;84.80;;;;;;8394640;28;19927;-74
2022/05/08 20:17:50;;;;;;;;;;;17.20;84.90;;;;;;8396588;28;19920;-74
2022/05/08 20:22:04;;;;;;;;;;;17.10;84.90;;;;;;8394060;28;20295;-74
2022/05/08 20:26:06;;;;;;;;;;;17.10;84.80;;;;;;8394627;28;19928;-74
2022/05/08 20:30:08;;;;;;;;;;;17.00;84.70;;;;;;8390921;28;19955;-73
2022/05/08 20:34:09;;;;;;;;;;;16.90;84.50;;;;;;8393013;28;20265;-74
2022/05/08 20:38:11;;;;;;;;;;;16.90;84.50;;;;;;8391917;28;19921;-74
2022/05/08 20:42:15;;;;;;;;;;;16.70;84.30;;;;;;8396141;28;19923;-74
2022/05/08 20:46:16;;;;;;;;;;;16.60;84.10;;;;;;8391938;28;20325;-74
2022/05/08 20:50:18;;;;;;;;;;;16.60;84.20;;;;;;8389887;28;20360;-74
2022/05/08 20:54:20;;;;;;;;;;;16.50;83.90;;;;;;8392984;28;19924;-74
2022/05/08 20:58:22;;;;;;;;;;;16.40;83.80;;;;;;8393352;28;20367;-74
2022/05/08 21:02:23;;;;;;;;;;;16.30;83.70;;;;;;8399797;28;19921;-74
2022/05/08 21:10:46;;;;;;;;;;;16.20;83.50;;;;;;8413788;28;19985;-73
2022/05/08 21:14:48;;;;;;;;;;;16.00;83.30;;;;;;8423346;28;19920;-73
2022/05/08 21:18:49;;;;;;;;;;;15.90;83.20;;;;;;8425966;28;19928;-74
2022/05/08 21:22:51;;;;;;;;;;;15.90;83.10;;;;;;8420138;28;19927;-73
2022/05/08 21:26:53;;;;;;;;;;;15.80;83.00;;;;;;8423651;28;20298;-74
2022/05/08 21:30:54;;;;;;;;;;;15.70;82.80;;;;;;8426684;28;20197;-73
2022/05/08 21:34:57;;;;;;;;;;;15.60;82.70;;;;;;8416255;28;19927;-73
2022/05/08 21:38:59;;;;;;;;;;;15.60;82.70;;;;;;8416721;28;20286;-74
2022/05/08 21:43:01;;;;;;;;;;;15.50;82.60;;;;;;8418694;28;19927;-73
2022/05/08 21:47:03;;;;;;;;;;;15.40;82.40;;;;;;8413093;28;19921;-73
2022/05/08 21:51:04;;;;;;;;;;;15.40;82.30;;;;;;8427281;28;19988;-73
2022/05/08 21:55:06;;;;;;;;;;;15.30;82.20;;;;;;8414776;28;19927;-73
2022/05/08 21:59:09;;;;;;;;;;;15.20;82.00;;;;;;8412948;28;19928;-74
2022/05/08 22:03:11;;;;;;;;;;;15.10;81.90;;;;;;8424468;28;19931;-74
2022/05/08 22:07:14;;;;;;;;;;;15.00;81.90;;;;;;8410292;28;20170;-74
2022/05/08 22:11:16;;;;;;;;;;;14.90;81.90;;;;;;8414323;28;19920;-73
2022/05/08 22:15:18;;;;;;;;;;;14.80;81.80;;;;;;8418262;28;19920;-73
2022/05/08 22:19:19;;;;;;;;;;;14.80;82.30;;;;;;8420872;28;20290;-73
2022/05/08 22:23:21;;;;;;;;;;;14.80;81.60;;;;;;8420704;28;19920;-74
2022/05/08 22:27:23;;;;;;;;;;;14.70;81.30;;;;;;8416659;28;19957;-73
2022/05/08 22:31:24;;;;;;;;;;;14.60;81.20;;;;;;8415357;28;19939;-73
2022/05/08 22:35:26;;;;;;;;;;;14.50;81.20;;;;;;8412413;28;19928;-73
2022/05/08 22:39:28;;;;;;;;;;;14.50;81.20;;;;;;8415171;28;19928;-72
2022/05/08 22:43:29;;;;;;;;;;;14.40;80.90;;;;;;8422423;28;19928;-73
2022/05/08 22:47:31;;;;;;;;;;;14.30;80.90;;;;;;8413772;28;19928;-74
2022/05/08 22:51:33;;;;;;;;;;;14.30;80.90;;;;;;8418066;28;19979;-74
2022/05/08 22:55:35;;;;;;;;;;;14.30;80.90;;;;;;8422258;28;19936;-73
2022/05/08 22:59:36;;;;;;;;;;;14.20;80.70;;;;;;8420704;28;19920;-74
2022/05/08 23:03:38;;;;;;;;;;;14.20;80.70;;;;;;8420052;28;19919;-74
2022/05/08 23:07:40;;;;;;;;;;;14.10;80.70;;;;;;8415148;28;19931;-73
2022/05/08 23:11:43;;;;;;;;;;;14.00;80.30;;;;;;8431446;28;19958;-73
2022/05/08 23:15:46;;;;;;;;;;;14.00;80.60;;;;;;8423785;28;19928;-74
2022/05/08 23:19:47;;;;;;;;;;;13.90;80.30;;;;;;8421237;28;20068;-73
2022/05/08 23:23:50;;;;;;;;;;;13.90;80.20;;;;;;8427528;28;20371;-73
2022/05/08 23:27:52;;;;;;;;;;;13.80;80.20;;;;;;8418657;28;19931;-73
2022/05/08 23:31:54;;;;;;;;;;;13.80;80.10;;;;;;8424264;28;19927;-73
2022/05/08 23:35:56;;;;;;;;;;;13.70;79.90;;;;;;8424516;28;19929;-73
2022/05/08 23:39:57;;;;;;;;;;;13.70;79.70;;;;;;8421983;28;19919;-73
2022/05/08 23:44:00;;;;;;;;;;;13.60;79.50;;;;;;8430691;28;19927;-74
2022/05/08 23:48:02;;;;;;;;;;;13.50;79.80;;;;;;8421876;28;19920;-73
2022/05/08 23:52:05;;;;;;;;;;;13.50;80.00;;;;;;8415066;28;19920;-73
2022/05/08 23:56:06;;;;;;;;;;;13.40;79.80;;;;;;8422246;28;19920;-73
